Impacts TAF Board
For situational awareness. Not to be used for flight planning purposes.
IDs:

KSFO - San Francisco Intl, CA, US

Issued at 0900 UTC 18 Oct 2018
Updated at 1000 UTC 18 Oct 2018
Potential Impact None Slight Moderate High
Time0956Z 18/10Z 18/11Z 18/12Z 18/13Z 18/14Z 18/15Z 18/16Z 18/17Z 18/18Z 18/19Z 18/20Z 18/21Z 18/22Z>>
Type OBS PRVL PRVL PRVL
  [TEMP]  
PRVL
  [TEMP]  
PRVL
  [TEMP]  
PRVL
  [TEMP]  
PRVL PRVL PRVL PRVL PRVL PRVL PRVL
VIS 10 >6 >6 >6 >6 >6 >6 >6 >6 >6 >6 >6 >6 >6
CIG -- -- -- --
  [10]  
--
  [10]  
--
  [10]  
--
  [10]  
-- -- -- -- -- -- --
Cover FEW FEW FEW SCT
  [BKN]  
SCT
  [BKN]  
SCT
  [BKN]  
SCT
  [BKN]  
SCT SCT SCT SKC SKC SKC SKC
FltCat VFR VFR VFR VFR
  [MVFR]  
VFR
  [MVFR]  
VFR
  [MVFR]  
VFR
  [MVFR]  
VFR VFR VFR VFR VFR VFR VFR
WX -- -- -- --
  [--]  
--
  [--]  
--
  [--]  
--
  [--]  
-- -- -- -- -- -- --
WDir 270 VRB VRB 100
[100]
100
[100]
100
[100]
100
[100]
100 50 50 300 300 300 300
WSpd 6 3 3 5
  [5]  
5
  [5]  
5
  [5]  
5
  [5]  
5 6 6 13 13 13 13
WGst -- -- -- --
  [--]  
--
  [--]  
--
  [--]  
--
  [--]  
-- -- -- -- -- -- --
Raw TAF
KSFO 180900Z 1809/1912 VRB03KT P6SM FEW008
  FM181200 10005KT P6SM SCT010
  TEMPO 1812/1816 BKN010
  FM181700 05006KT P6SM SCT010
  FM181900 30013KT P6SM SKC
  FM190400 29008KT P6SM FEW008


Raw METAR
KSFO 180956Z 27006KT 10SM FEW200 11/09 A3010 RMK AO2 SLP193 T01110089
KSFO 180856Z 28004KT 10SM FEW200 11/09 A3010 RMK AO2 SLP193 T01060089 51005
KSFO 180756Z 28007KT 10SM FEW200 12/09 A3010 RMK AO2 SLP192 T01170094 402060094
KSFO 180656Z 28009KT 10SM FEW009 12/09 A3009 RMK AO2 SLP190 T01170094

METAR Board
Radar Display
Forecast Discussion
For situational awareness. Not to be used for flight planning purposes.